Mirko Parise

Chefscout - Juventus
4 Dez 2028
Montag
Verarbeitung

Persönlichkeit

Anpassungsfähigkeit (16) Ehrgeiz (6) Kontroverse (19) Loyalität (5) Druck (12) Professionalität (16) Fairness (15) Temperament (2)

Profil

Trainerstil Demokratisch
Lizenz Kontinentale B
Entschlossenheit 16
Menschenführung 7
Motivation 8
Disziplin 13
Arbeitszufriedenheit
100%
Ermüdung
0%
Rolle Chefscout
Gehalt 132.9K p/W
Vertrag 14.03.2030

Leistung

Verhalten Gut
Trainingseffektivität
55%
Spielerentwicklung
55%
Verletzungsprävention
40%
Taktische Umsetzung
40%

Letzte Ereignisse

Nahm an einer Scouting-Besprechung teil jetzt
Nahm an einer Scouting-Besprechung teil jetzt
Nahm an einer Scouting-Besprechung teil jetzt
Nahm an einer Scouting-Besprechung teil jetzt
Nahm an einer Scouting-Besprechung teil 7T her
Nahm an einer Scouting-Besprechung teil 7T her
Nahm an einer Scouting-Besprechung teil 7T her
Nahm an einer Scouting-Besprechung teil 7T her

Aktuell beobachtet

116
Spieler Verein Status Fähigkeit Vertrauen Beobachtet Zuletzt beobachtet Letzte Stimme
Riccardo Stronati Pergolettese Aktiv 107 / 107 30% 1 / 1m 01.11.2028 -
Mathis Lambourde AlbinoLeffe Aktiv 133 / 136 42% 1 / 1m 01.11.2028 -
Stefano Girelli Sampdoria Aktiv 122 / 122 42% 1 / 1m 01.11.2028 -
Fabiano Parisi Sampdoria Aktiv 150 / 150 30% 1 / 1m 01.11.2028 -
Tjaš Begić Sampdoria Aktiv 129 / 129 30% 1 / 1m 01.11.2028 -
Tommaso Marras Mantova Aktiv 126 / 129 30% 1 / 1m 01.11.2028 -
Damien Theodore Pontedera Aktiv 72 / 75 42% 1 / 1m 20.09.2028 -
Umberto Landi Pontedera Aktiv 64 / 69 30% 1 / 1m 20.09.2028 -
Rayan Cherki Manchester City Aktiv 171 / 169 40% 11 21.08.2028 -
Bukayo Saka Arsenal Aktiv 183 / 186 40% 6 21.08.2028 -
Endrick Boca Juniors Aktiv 163 / 162 40% 1 21.08.2028 -
Gabriel Martinelli Arsenal Aktiv 172 / 167 40% 16 10.07.2028 Beobachten
Morgan Rogers Chelsea Aktiv 168 / 165 40% 7 10.07.2028 -
Jérémy Doku Manchester City Aktiv 174 / 176 40% 8 10.07.2028 -
James Rodríguez Pescara Verloren 136 / 139 86% 1 03.07.2028 -
Anass Salah-Eddine AS Roma Bericht bereit 137 / 137 86% 1 26.06.2028 -
Armand Laurienté Sassuolo Verloren 141 / 144 86% 1 19.06.2028 -
El Bilal Touré Atalanta Verloren 142 / 142 86% 1 12.06.2028 -
Martin Baturina Como Bericht bereit 141 / 143 86% 1 04.06.2028 -
Ben Nelson Leicester City Aktiv 143 / 142 40% 1 03.06.2028 -
Juanlu Bournemouth Aktiv 153 / 158 40% 1 03.06.2028 -
Alphadjo Cissé Lecce Aktiv 130 / 131 40% 1 02.06.2028 -
André Miranda Porto Aktiv 114 / 122 40% 1 02.06.2028 -
Rio Ngumoha Plymouth Argyle Verhandlung 144 / 150 40% 1 02.06.2028 -
Ismaïla Sarr Crystal Palace Aktiv 155 / 156 40% 10 31.05.2028 -
Manu Koné AS Roma Aktiv 169 / 168 40% 24 30.05.2028 -
David Neres Liverpool Aktiv 162 / 156 40% 8 30.05.2028 -
Hugo Ekitiké Liverpool Aktiv 169 / 166 40% 8 29.05.2028 -
Joelinton Everton Aktiv 162 / 163 40% 3 29.05.2028 -
Bradley Barcola Liverpool Aktiv 171 / 169 40% 9 28.05.2028 -
Alexander Isak Liverpool Aktiv 181 / 180 40% 6 28.05.2028 -
Emile Smith Rowe Cardiff City Aktiv 156 / 155 40% 3 27.05.2028 -
Florian Wirtz Liverpool Aktiv 179 / 174 40% 7 26.05.2028 Beobachten
Kevin Fulham Aktiv 153 / 157 40% 5 26.05.2028 -
Omar Marmoush Manchester City Aktiv 173 / 170 40% 1 26.05.2028 -
Christian Pulisic AC Milan Aktiv 166 / 162 40% 11 25.05.2028 -
Martin Ødegaard Arsenal Aktiv 183 / 180 40% 6 24.05.2028 Beobachten
Xavi Simons Tottenham Aktiv 164 / 163 40% 9 22.05.2028 -
Alexis Saelemaekers AC Milan Aktiv 159 / 157 40% 8 19.05.2028 -
Iliman N'Diaye Everton Aktiv 161 / 156 40% 5 13.05.2028 Beobachten
Christopher Nkunku AC Milan Aktiv 166 / 162 40% 10 13.05.2028 -
Charles De Ketelaere Tottenham Aktiv 163 / 154 40% 5 08.05.2028 -
Phil Foden Manchester City Aktiv 176 / 177 40% 4 26.04.2028 -
Savinho Tottenham Aktiv 165 / 162 40% 9 31.03.2028 -
Amad Manchester United Aktiv 157 / 157 40% 3 28.03.2028 -
Kenneth Taylor Lazio Aktiv 156 / 154 40% 9 29.02.2028 -
Mason Greenwood Lazio Aktiv 163 / 158 40% 2 25.02.2028 -
Riccardo Orsolini Bologna Aktiv 157 / 151 83% 6 23.02.2028 -
Exequiel Palacios Lazio Aktiv 163 / 164 40% 3 23.02.2028 -
Théo Hernández CSKA Moscow Aktiv 149 / 147 40% 4 20.02.2028 -
Matías Soulé AS Roma Aktiv 163 / 161 40% 13 14.02.2028 -
Nicolò Bertola Udinese Aktiv 139 / 136 40% 1 31.01.2028 -
Sebastiano Esposito Cagliari Aktiv 148 / 146 40% 1 24.01.2028 -
Gianluca Scamacca Atalanta Verloren 152 / 151 67% 11 31.12.2027 -
Darwin Núñez Al-Hilal Aktiv 158 / 142 40% 1 31.12.2027 -
Giorgio Scalvini Atalanta Aktiv 153 / 147 40% 3 21.06.2027 -
Donyell Malen AS Roma Aktiv 154 / 155 67% 14 15.06.2027 -
Giacomo Raspadori Atalanta Aktiv 144 / 145 40% 13 15.06.2027 -
Steven Bergwijn Al-Ittihad Aktiv 145 / 151 67% 5 13.06.2027 -
Gonçalo Ramos AC Milan Aktiv 153 / 148 40% 14 08.06.2027 -
Pontus Almqvist Parma Aktiv 133 / 121 79% 1 02.06.2027 -
Malo Gusto Chelsea Aktiv 144 / 154 40% 5 01.06.2027 -
Billy Gilmour Napoli Aktiv 149 / 150 40% 11 29.05.2027 -
Raoul Bellanova Atalanta Aktiv 152 / 152 40% 17 27.05.2027 -
Wesley AS Roma Aktiv 144 / 145 40% 12 25.05.2027 -
Arthur Atta Fiorentina Aktiv 138 / 136 40% 1 25.05.2027 -
Eliás Montiel Borussia Dortmund Aktiv 132 / 135 40% 1 19.05.2027 -
Samuele di Benedetto Twente Aktiv 115 / 124 40% 1 13.05.2027 -
Kobbie Mainoo Manchester United Aktiv 154 / 161 40% 12 11.05.2027 -
Luka Vušković Tottenham Aktiv 138 / 144 40% 2 11.05.2027 -
Nuno Tavares Lazio Aktiv 143 / 146 40% 3 08.05.2027 -
Bence Dárdai VfL Wolfsburg Aktiv 130 / 140 40% 3 04.05.2027 -
Ezra Mayers West Ham United Aktiv 113 / 120 40% 1 19.04.2027 -
Sascha Britschgi AC Milan Aktiv 122 / 123 40% 1 15.04.2027 -
Gady Beyuku Blackburn Rovers Aktiv 109 / 113 40% 3 06.04.2027 -
David Ozoh Derby County Aktiv 120 / 128 40% 1 06.04.2027 -
Victor Hernandez Santa Fe Aktiv 116 / 117 40% 1 06.04.2027 -
Eivind Helland AC Milan Aktiv 128 / 134 40% 2 22.03.2027 -
Ronan Kpakio AC Milan Aktiv 115 / 133 40% 1 06.03.2027 -
Mile Svilar AS Roma Aktiv 164 / 153 40% 2 11.01.2027 Mehr Infos nötig
Arthur Beroe Aktiv 109 / 121 40% 1 01.01.2027 -
Elia Caprile Cagliari Aktiv 149 / 135 40% 2 26.12.2026 -
Patrick Schulte Columbus Crew Aktiv 129 / 136 40% 1 01.12.2026 -
Bogdan Ovsyannikov Orenburg Aktiv 103 / 110 40% 1 26.11.2026 -
Mads Hedenstad AGF Aktiv 119 / 124 40% 1 17.11.2026 -
Roman Celentano FC Cincinnati Aktiv 116 / 118 40% 1 08.11.2026 -
Gianluca Saro Foggia Aktiv 115 / 103 40% 1 28.10.2026 -
Paulo Dybala AS Roma Aktiv 146 / 150 40% 6 27.10.2026 -
Matheus Cunha Manchester United Aktiv 158 / 160 40% 3 24.10.2026 -
Nicolas Jackson Aston Villa Aktiv 146 / 151 40% 3 24.10.2026 -
Cody Gakpo Liverpool Aktiv 161 / 153 40% 2 23.10.2026 -
Kevin Schade Chelsea Aktiv 145 / 155 40% 2 23.10.2026 -
Georginio Rutter Brighton Aktiv 142 / 144 40% 3 23.10.2026 -
Federico Chiesa Liverpool Aktiv 153 / 163 40% 5 20.10.2026 -
Senne Lammens Manchester United Aktiv 145 / 144 40% 2 19.10.2026 -
Caoimhin Kelleher Brentford Aktiv 146 / 151 40% 2 17.10.2026 -
Nicolás Sumavil Platense Aktiv 127 / 101 40% 1 17.10.2026 -
Anthony Patterson Wrexham Aktiv 130 / 124 40% 1 16.10.2026 -
Bryan Mbeumo Manchester United Aktiv 158 / 165 40% 3 06.10.2026 -
Zion Suzuki Aston Villa Aktiv 140 / 134 40% 1 06.10.2026 -
Nathan Trott Cardiff City Aktiv 118 / 120 40% 1 06.10.2026 -
João Pedro Chelsea Aktiv 155 / 144 40% 5 02.10.2026 -
Jarrod Bowen West Ham United Aktiv 156 / 143 40% 5 01.10.2026 -
Esteban Glellel Quilmes Aktiv 121 / 110 40% 1 30.09.2026 -
Marcus Rashford Manchester United Aktiv 160 / 157 40% 3 27.09.2026 -
Mads Hermansen West Ham United Aktiv 132 / 125 40% 1 27.09.2026 -
Luciano Jachfe Nueva Chicago Aktiv 109 / 117 40% 1 25.09.2026 -
Giorgi Mamardashvili Liverpool Aktiv 161 / 166 40% 1 20.09.2026 -
Antoine Semenyo Manchester City Aktiv 155 / 162 40% 1 18.09.2026 -
Josh Keeley Luton Town Aktiv 125 / 123 40% 1 18.09.2026 -
Ousmane Dembélé Paris Saint-Germain Aktiv 187 / 177 40% 1 07.09.2026 -
Viktor Gyökeres Arsenal Aktiv 157 / 161 40% 1 27.08.2026 -
Lautaro Vargas Unión de Santa Fe Aktiv 111 / 139 40% 1 26.08.2026 -
Nico O'Reilly Manchester City Aktiv 145 / 149 40% 1 13.08.2026 -
Lucas Bergvall Tottenham Aktiv 140 / 151 40% 1 10.08.2026 -
Lewis Hall Newcastle United Aktiv 150 / 156 40% 1 10.08.2026 -